sensor_id;sensor_type;location;lat;lon;timestamp;P1;durP1;ratioP1;P2;durP2;ratioP2
12719;SDS011;6424;48.520;11.228;2023-05-07T00:01:56;3.67;;;2.07;;
12719;SDS011;6424;48.520;11.228;2023-05-07T00:04:22;4.30;;;2.43;;
12719;SDS011;6424;48.520;11.228;2023-05-07T00:07:03;2.53;;;2.10;;
12719;SDS011;6424;48.520;11.228;2023-05-07T00:09:44;3.03;;;2.20;;
12719;SDS011;6424;48.520;11.228;2023-05-07T00:12:24;2.40;;;2.10;;
12719;SDS011;6424;48.520;11.228;2023-05-07T00:15:05;2.83;;;2.10;;
12719;SDS011;6424;48.520;11.228;2023-05-07T00:17:47;2.20;;;2.00;;
12719;SDS011;6424;48.520;11.228;2023-05-07T00:20:27;2.20;;;2.00;;
12719;SDS011;6424;48.520;11.228;2023-05-07T00:22:53;3.60;;;2.53;;
12719;SDS011;6424;48.520;11.228;2023-05-07T00:25:34;3.43;;;2.37;;
12719;SDS011;6424;48.520;11.228;2023-05-07T00:28:00;4.33;;;2.50;;
12719;SDS011;6424;48.520;11.228;2023-05-07T00:30:43;2.17;;;1.97;;
12719;SDS011;6424;48.520;11.228;2023-05-07T00:33:24;2.50;;;2.30;;
12719;SDS011;6424;48.520;11.228;2023-05-07T00:36:06;4.10;;;2.40;;
12719;SDS011;6424;48.520;11.228;2023-05-07T00:38:47;2.50;;;2.30;;
12719;SDS011;6424;48.520;11.228;2023-05-07T00:41:28;2.70;;;2.50;;
12719;SDS011;6424;48.520;11.228;2023-05-07T00:44:10;5.97;;;2.87;;
12719;SDS011;6424;48.520;11.228;2023-05-07T00:46:51;2.70;;;2.50;;
12719;SDS011;6424;48.520;11.228;2023-05-07T00:49:41;3.97;;;2.57;;
12719;SDS011;6424;48.520;11.228;2023-05-07T00:52:23;2.53;;;2.33;;
12719;SDS011;6424;48.520;11.228;2023-05-07T00:55:06;2.60;;;2.37;;
12719;SDS011;6424;48.520;11.228;2023-05-07T00:57:47;2.87;;;2.60;;
12719;SDS011;6424;48.520;11.228;2023-05-07T01:00:13;3.07;;;2.60;;
12719;SDS011;6424;48.520;11.228;2023-05-07T01:02:39;4.60;;;2.70;;
12719;SDS011;6424;48.520;11.228;2023-05-07T01:05:20;3.47;;;2.43;;
12719;SDS011;6424;48.520;11.228;2023-05-07T01:07:48;5.00;;;2.67;;
12719;SDS011;6424;48.520;11.228;2023-05-07T01:10:17;3.33;;;3.03;;
12719;SDS011;6424;48.520;11.228;2023-05-07T01:12:58;4.87;;;3.17;;
12719;SDS011;6424;48.520;11.228;2023-05-07T01:15:40;5.23;;;3.43;;
12719;SDS011;6424;48.520;11.228;2023-05-07T01:18:06;4.50;;;3.43;;
12719;SDS011;6424;48.520;11.228;2023-05-07T01:20:47;4.83;;;3.20;;
12719;SDS011;6424;48.520;11.228;2023-05-07T01:23:28;5.30;;;3.03;;
12719;SDS011;6424;48.520;11.228;2023-05-07T01:26:10;4.40;;;3.30;;
12719;SDS011;6424;48.520;11.228;2023-05-07T01:28:51;3.80;;;3.37;;
12719;SDS011;6424;48.520;11.228;2023-05-07T01:31:32;3.87;;;3.30;;
12719;SDS011;6424;48.520;11.228;2023-05-07T01:34:15;4.27;;;2.73;;
12719;SDS011;6424;48.520;11.228;2023-05-07T01:36:59;3.00;;;2.77;;
12719;SDS011;6424;48.520;11.228;2023-05-07T01:39:42;4.53;;;2.87;;
12719;SDS011;6424;48.520;11.228;2023-05-07T01:42:23;3.73;;;2.60;;
12719;SDS011;6424;48.520;11.228;2023-05-07T01:45:04;4.50;;;2.73;;
12719;SDS011;6424;48.520;11.228;2023-05-07T01:47:30;3.00;;;2.80;;
12719;SDS011;6424;48.520;11.228;2023-05-07T01:50:12;4.53;;;3.10;;
12719;SDS011;6424;48.520;11.228;2023-05-07T01:52:55;3.03;;;2.67;;
12719;SDS011;6424;48.520;11.228;2023-05-07T01:55:36;4.27;;;3.17;;
12719;SDS011;6424;48.520;11.228;2023-05-07T01:58:17;3.37;;;2.87;;
12719;SDS011;6424;48.520;11.228;2023-05-07T02:00:58;4.13;;;3.30;;
12719;SDS011;6424;48.520;11.228;2023-05-07T02:03:39;4.77;;;3.20;;
12719;SDS011;6424;48.520;11.228;2023-05-07T02:06:05;3.43;;;3.10;;
12719;SDS011;6424;48.520;11.228;2023-05-07T02:08:46;5.70;;;3.47;;
12719;SDS011;6424;48.520;11.228;2023-05-07T02:11:27;3.80;;;3.40;;
12719;SDS011;6424;48.520;11.228;2023-05-07T02:14:08;4.40;;;3.33;;
12719;SDS011;6424;48.520;11.228;2023-05-07T02:16:49;3.67;;;3.37;;
12719;SDS011;6424;48.520;11.228;2023-05-07T02:19:29;7.40;;;3.90;;
12719;SDS011;6424;48.520;11.228;2023-05-07T02:22:10;5.53;;;4.13;;
12719;SDS011;6424;48.520;11.228;2023-05-07T02:24:36;7.80;;;4.00;;
12719;SDS011;6424;48.520;11.228;2023-05-07T02:27:17;4.57;;;3.67;;
12719;SDS011;6424;48.520;11.228;2023-05-07T02:29:42;5.97;;;4.33;;
12719;SDS011;6424;48.520;11.228;2023-05-07T02:32:23;6.53;;;4.20;;
12719;SDS011;6424;48.520;11.228;2023-05-07T02:34:50;3.90;;;3.50;;
12719;SDS011;6424;48.520;11.228;2023-05-07T02:37:32;4.77;;;3.50;;
12719;SDS011;6424;48.520;11.228;2023-05-07T02:40:13;3.57;;;3.27;;
12719;SDS011;6424;48.520;11.228;2023-05-07T02:42:54;4.97;;;2.97;;
12719;SDS011;6424;48.520;11.228;2023-05-07T02:45:35;4.13;;;3.37;;
12719;SDS011;6424;48.520;11.228;2023-05-07T02:48:18;3.50;;;3.20;;
12719;SDS011;6424;48.520;11.228;2023-05-07T02:50:59;5.47;;;3.70;;
12719;SDS011;6424;48.520;11.228;2023-05-07T02:53:41;6.57;;;3.40;;
12719;SDS011;6424;48.520;11.228;2023-05-07T02:56:21;4.40;;;3.67;;
12719;SDS011;6424;48.520;11.228;2023-05-07T02:59:02;5.87;;;4.17;;
12719;SDS011;6424;48.520;11.228;2023-05-07T03:01:43;4.93;;;3.47;;
12719;SDS011;6424;48.520;11.228;2023-05-07T03:04:25;4.60;;;3.97;;
12719;SDS011;6424;48.520;11.228;2023-05-07T03:07:06;3.73;;;3.37;;
12719;SDS011;6424;48.520;11.228;2023-05-07T03:09:46;4.27;;;3.70;;
12719;SDS011;6424;48.520;11.228;2023-05-07T03:12:27;3.73;;;3.43;;
12719;SDS011;6424;48.520;11.228;2023-05-07T03:15:08;4.33;;;3.57;;
12719;SDS011;6424;48.520;11.228;2023-05-07T03:17:50;4.00;;;3.03;;
12719;SDS011;6424;48.520;11.228;2023-05-07T03:20:31;4.87;;;3.50;;
12719;SDS011;6424;48.520;11.228;2023-05-07T03:23:12;4.57;;;3.40;;
12719;SDS011;6424;48.520;11.228;2023-05-07T03:25:52;5.10;;;3.60;;
12719;SDS011;6424;48.520;11.228;2023-05-07T03:28:33;3.00;;;2.80;;
12719;SDS011;6424;48.520;11.228;2023-05-07T03:31:14;3.30;;;3.00;;
12719;SDS011;6424;48.520;11.228;2023-05-07T03:33:55;3.83;;;3.30;;
12719;SDS011;6424;48.520;11.228;2023-05-07T03:36:37;4.20;;;3.70;;
12719;SDS011;6424;48.520;11.228;2023-05-07T03:39:18;4.40;;;4.00;;
12719;SDS011;6424;48.520;11.228;2023-05-07T03:41:59;4.90;;;3.60;;
12719;SDS011;6424;48.520;11.228;2023-05-07T03:44:39;4.23;;;3.53;;
12719;SDS011;6424;48.520;11.228;2023-05-07T03:47:20;6.07;;;4.60;;
12719;SDS011;6424;48.520;11.228;2023-05-07T03:50:01;4.63;;;4.23;;
12719;SDS011;6424;48.520;11.228;2023-05-07T03:52:42;4.47;;;3.73;;
12719;SDS011;6424;48.520;11.228;2023-05-07T03:55:22;6.60;;;4.47;;
12719;SDS011;6424;48.520;11.228;2023-05-07T03:58:03;5.57;;;4.10;;
12719;SDS011;6424;48.520;11.228;2023-05-07T04:00:29;4.90;;;3.67;;
12719;SDS011;6424;48.520;11.228;2023-05-07T04:02:58;4.70;;;4.30;;
12719;SDS011;6424;48.520;11.228;2023-05-07T04:05:39;5.13;;;4.10;;
12719;SDS011;6424;48.520;11.228;2023-05-07T04:08:05;5.70;;;3.80;;
12719;SDS011;6424;48.520;11.228;2023-05-07T04:10:46;4.40;;;4.00;;
12719;SDS011;6424;48.520;11.228;2023-05-07T04:13:26;5.00;;;4.23;;
12719;SDS011;6424;48.520;11.228;2023-05-07T04:16:07;4.07;;;3.77;;
12719;SDS011;6424;48.520;11.228;2023-05-07T04:18:48;4.83;;;4.20;;
12719;SDS011;6424;48.520;11.228;2023-05-07T04:21:29;6.60;;;4.10;;
12719;SDS011;6424;48.520;11.228;2023-05-07T04:24:10;3.93;;;3.53;;
12719;SDS011;6424;48.520;11.228;2023-05-07T04:26:51;5.10;;;3.80;;
12719;SDS011;6424;48.520;11.228;2023-05-07T04:29:32;4.87;;;3.77;;
12719;SDS011;6424;48.520;11.228;2023-05-07T04:32:13;3.93;;;3.23;;
12719;SDS011;6424;48.520;11.228;2023-05-07T04:34:54;4.43;;;2.90;;
12719;SDS011;6424;48.520;11.228;2023-05-07T04:37:35;3.93;;;3.53;;
12719;SDS011;6424;48.520;11.228;2023-05-07T04:40:16;5.00;;;3.77;;
12719;SDS011;6424;48.520;11.228;2023-05-07T04:42:57;3.37;;;3.07;;
12719;SDS011;6424;48.520;11.228;2023-05-07T04:45:38;5.10;;;3.37;;
12719;SDS011;6424;48.520;11.228;2023-05-07T04:48:21;4.20;;;3.80;;
12719;SDS011;6424;48.520;11.228;2023-05-07T04:51:02;3.67;;;3.37;;
12719;SDS011;6424;48.520;11.228;2023-05-07T04:53:43;4.57;;;3.73;;
12719;SDS011;6424;48.520;11.228;2023-05-07T04:56:24;3.83;;;3.40;;
12719;SDS011;6424;48.520;11.228;2023-05-07T04:59:07;4.50;;;3.33;;
12719;SDS011;6424;48.520;11.228;2023-05-07T05:01:48;3.87;;;3.00;;
12719;SDS011;6424;48.520;11.228;2023-05-07T05:04:28;4.40;;;2.70;;
12719;SDS011;6424;48.520;11.228;2023-05-07T05:07:09;2.90;;;2.53;;
12719;SDS011;6424;48.520;11.228;2023-05-07T05:09:50;4.73;;;3.00;;
12719;SDS011;6424;48.520;11.228;2023-05-07T05:12:31;5.77;;;3.23;;
12719;SDS011;6424;48.520;11.228;2023-05-07T05:15:12;2.90;;;2.70;;
12719;SDS011;6424;48.520;11.228;2023-05-07T05:17:53;3.17;;;2.80;;
12719;SDS011;6424;48.520;11.228;2023-05-07T05:20:18;3.23;;;2.93;;
12719;SDS011;6424;48.520;11.228;2023-05-07T05:22:59;3.20;;;2.93;;
12719;SDS011;6424;48.520;11.228;2023-05-07T05:25:40;3.47;;;3.10;;
12719;SDS011;6424;48.520;11.228;2023-05-07T05:28:21;3.00;;;2.80;;
12719;SDS011;6424;48.520;11.228;2023-05-07T05:31:01;3.63;;;2.27;;
12719;SDS011;6424;48.520;11.228;2023-05-07T05:33:42;3.30;;;3.00;;
12719;SDS011;6424;48.520;11.228;2023-05-07T05:36:23;4.10;;;3.03;;
12719;SDS011;6424;48.520;11.228;2023-05-07T05:39:04;3.20;;;3.00;;
12719;SDS011;6424;48.520;11.228;2023-05-07T05:41:44;3.37;;;2.70;;
12719;SDS011;6424;48.520;11.228;2023-05-07T05:44:25;3.37;;;3.07;;
12719;SDS011;6424;48.520;11.228;2023-05-07T05:47:06;3.80;;;2.80;;
12719;SDS011;6424;48.520;11.228;2023-05-07T05:49:47;3.10;;;2.80;;
12719;SDS011;6424;48.520;11.228;2023-05-07T05:52:27;3.53;;;2.90;;
12719;SDS011;6424;48.520;11.228;2023-05-07T05:55:08;4.03;;;2.80;;
12719;SDS011;6424;48.520;11.228;2023-05-07T05:57:35;3.00;;;2.80;;
12719;SDS011;6424;48.520;11.228;2023-05-07T06:00:16;3.80;;;3.00;;
12719;SDS011;6424;48.520;11.228;2023-05-07T06:02:42;2.90;;;2.70;;
12719;SDS011;6424;48.520;11.228;2023-05-07T06:05:22;4.67;;;2.97;;
12719;SDS011;6424;48.520;11.228;2023-05-07T06:08:03;3.53;;;2.73;;
12719;SDS011;6424;48.520;11.228;2023-05-07T06:10:44;4.30;;;3.20;;
12719;SDS011;6424;48.520;11.228;2023-05-07T06:13:25;4.47;;;3.10;;
12719;SDS011;6424;48.520;11.228;2023-05-07T06:16:06;3.40;;;3.10;;
12719;SDS011;6424;48.520;11.228;2023-05-07T06:18:47;3.30;;;3.00;;
12719;SDS011;6424;48.520;11.228;2023-05-07T06:21:13;3.77;;;3.47;;
12719;SDS011;6424;48.520;11.228;2023-05-07T06:23:55;3.53;;;3.23;;
12719;SDS011;6424;48.520;11.228;2023-05-07T06:26:35;3.80;;;3.50;;
12719;SDS011;6424;48.520;11.228;2023-05-07T06:29:16;3.93;;;3.50;;
12719;SDS011;6424;48.520;11.228;2023-05-07T06:31:57;3.93;;;3.20;;
12719;SDS011;6424;48.520;11.228;2023-05-07T06:34:49;4.17;;;3.57;;
12719;SDS011;6424;48.520;11.228;2023-05-07T06:37:15;3.80;;;3.10;;
12719;SDS011;6424;48.520;11.228;2023-05-07T06:39:56;4.47;;;3.60;;
12719;SDS011;6424;48.520;11.228;2023-05-07T06:42:37;8.23;;;5.77;;
12719;SDS011;6424;48.520;11.228;2023-05-07T06:45:18;16.77;;;13.43;;
12719;SDS011;6424;48.520;11.228;2023-05-07T06:47:59;7.87;;;6.67;;
12719;SDS011;6424;48.520;11.228;2023-05-07T06:50:41;5.20;;;4.53;;
12719;SDS011;6424;48.520;11.228;2023-05-07T06:53:22;4.10;;;3.80;;
12719;SDS011;6424;48.520;11.228;2023-05-07T06:56:03;6.33;;;3.70;;
12719;SDS011;6424;48.520;11.228;2023-05-07T06:58:45;4.13;;;3.73;;
12719;SDS011;6424;48.520;11.228;2023-05-07T07:01:25;4.80;;;3.60;;
12719;SDS011;6424;48.520;11.228;2023-05-07T07:04:06;5.23;;;3.77;;
12719;SDS011;6424;48.520;11.228;2023-05-07T07:06:47;4.63;;;3.53;;
12719;SDS011;6424;48.520;11.228;2023-05-07T07:09:28;4.37;;;4.00;;
12719;SDS011;6424;48.520;11.228;2023-05-07T07:12:09;3.77;;;3.47;;
12719;SDS011;6424;48.520;11.228;2023-05-07T07:14:34;3.83;;;3.43;;
12719;SDS011;6424;48.520;11.228;2023-05-07T07:17:15;5.20;;;3.63;;
12719;SDS011;6424;48.520;11.228;2023-05-07T07:19:56;4.53;;;3.90;;
12719;SDS011;6424;48.520;11.228;2023-05-07T07:22:36;4.30;;;3.80;;
12719;SDS011;6424;48.520;11.228;2023-05-07T07:25:17;5.63;;;3.43;;
12719;SDS011;6424;48.520;11.228;2023-05-07T07:27:58;3.60;;;3.30;;
12719;SDS011;6424;48.520;11.228;2023-05-07T07:30:39;5.77;;;3.90;;
12719;SDS011;6424;48.520;11.228;2023-05-07T07:33:20;3.30;;;3.00;;
12719;SDS011;6424;48.520;11.228;2023-05-07T07:35:45;5.47;;;3.30;;
12719;SDS011;6424;48.520;11.228;2023-05-07T07:38:26;3.97;;;3.50;;
12719;SDS011;6424;48.520;11.228;2023-05-07T07:41:10;4.00;;;3.60;;
12719;SDS011;6424;48.520;11.228;2023-05-07T07:43:36;3.97;;;3.33;;
12719;SDS011;6424;48.520;11.228;2023-05-07T07:46:16;4.77;;;3.20;;
12719;SDS011;6424;48.520;11.228;2023-05-07T07:48:57;3.50;;;3.20;;
12719;SDS011;6424;48.520;11.228;2023-05-07T07:51:39;4.10;;;3.70;;
12719;SDS011;6424;48.520;11.228;2023-05-07T07:54:20;4.53;;;3.90;;
12719;SDS011;6424;48.520;11.228;2023-05-07T07:57:01;3.77;;;3.37;;
12719;SDS011;6424;48.520;11.228;2023-05-07T07:59:42;3.33;;;3.03;;
12719;SDS011;6424;48.520;11.228;2023-05-07T08:02:23;5.77;;;3.20;;
12719;SDS011;6424;48.520;11.228;2023-05-07T08:05:04;5.30;;;3.50;;
12719;SDS011;6424;48.520;11.228;2023-05-07T08:07:45;4.80;;;3.60;;
12719;SDS011;6424;48.520;11.228;2023-05-07T08:10:32;4.70;;;4.30;;
12719;SDS011;6424;48.520;11.228;2023-05-07T08:13:14;3.63;;;3.30;;
12719;SDS011;6424;48.520;11.228;2023-05-07T08:15:55;4.30;;;3.50;;
12719;SDS011;6424;48.520;11.228;2023-05-07T08:18:36;5.67;;;3.63;;
12719;SDS011;6424;48.520;11.228;2023-05-07T08:21:02;4.10;;;3.70;;
12719;SDS011;6424;48.520;11.228;2023-05-07T08:23:43;4.27;;;3.60;;
12719;SDS011;6424;48.520;11.228;2023-05-07T08:26:23;4.00;;;3.60;;
12719;SDS011;6424;48.520;11.228;2023-05-07T08:29:04;3.93;;;3.03;;
12719;SDS011;6424;48.520;11.228;2023-05-07T08:31:45;6.70;;;3.50;;
12719;SDS011;6424;48.520;11.228;2023-05-07T08:34:26;3.50;;;3.23;;
12719;SDS011;6424;48.520;11.228;2023-05-07T08:37:06;3.97;;;3.40;;
12719;SDS011;6424;48.520;11.228;2023-05-07T08:39:47;4.40;;;3.53;;
12719;SDS011;6424;48.520;11.228;2023-05-07T08:42:28;7.13;;;3.80;;
12719;SDS011;6424;48.520;11.228;2023-05-07T08:45:10;4.53;;;3.57;;
12719;SDS011;6424;48.520;11.228;2023-05-07T08:47:55;7.50;;;3.70;;
12719;SDS011;6424;48.520;11.228;2023-05-07T08:50:39;4.30;;;3.90;;
12719;SDS011;6424;48.520;11.228;2023-05-07T08:53:20;4.50;;;4.10;;
12719;SDS011;6424;48.520;11.228;2023-05-07T08:56:01;5.23;;;3.93;;
12719;SDS011;6424;48.520;11.228;2023-05-07T08:58:28;3.97;;;3.57;;
12719;SDS011;6424;48.520;11.228;2023-05-07T09:01:10;4.73;;;4.30;;
12719;SDS011;6424;48.520;11.228;2023-05-07T09:03:54;6.77;;;5.73;;
12719;SDS011;6424;48.520;11.228;2023-05-07T09:06:35;4.57;;;4.07;;
12719;SDS011;6424;48.520;11.228;2023-05-07T09:09:18;5.50;;;4.30;;
12719;SDS011;6424;48.520;11.228;2023-05-07T09:11:59;4.47;;;4.07;;
12719;SDS011;6424;48.520;11.228;2023-05-07T09:14:40;4.90;;;4.40;;
12719;SDS011;6424;48.520;11.228;2023-05-07T09:17:20;3.90;;;3.53;;
12719;SDS011;6424;48.520;11.228;2023-05-07T09:19:46;4.70;;;3.77;;
12719;SDS011;6424;48.520;11.228;2023-05-07T09:22:27;4.50;;;4.10;;
12719;SDS011;6424;48.520;11.228;2023-05-07T09:25:08;4.87;;;4.20;;
12719;SDS011;6424;48.520;11.228;2023-05-07T09:27:49;5.17;;;4.67;;
12719;SDS011;6424;48.520;11.228;2023-05-07T09:30:32;4.50;;;4.10;;
12719;SDS011;6424;48.520;11.228;2023-05-07T09:33:13;6.37;;;3.20;;
12719;SDS011;6424;48.520;11.228;2023-05-07T09:35:54;4.50;;;4.10;;
12719;SDS011;6424;48.520;11.228;2023-05-07T09:38:36;3.47;;;2.37;;
12719;SDS011;6424;48.520;11.228;2023-05-07T09:41:03;3.60;;;2.97;;
12719;SDS011;6424;48.520;11.228;2023-05-07T09:43:54;1.67;;;1.50;;
12719;SDS011;6424;48.520;11.228;2023-05-07T09:46:36;5.60;;;1.93;;
12719;SDS011;6424;48.520;11.228;2023-05-07T09:49:21;2.70;;;2.17;;
12719;SDS011;6424;48.520;11.228;2023-05-07T09:52:03;2.70;;;1.70;;
12719;SDS011;6424;48.520;11.228;2023-05-07T09:54:50;4.17;;;2.80;;
12719;SDS011;6424;48.520;11.228;2023-05-07T09:57:34;3.03;;;1.97;;
12719;SDS011;6424;48.520;11.228;2023-05-07T10:00:17;2.90;;;2.60;;
12719;SDS011;6424;48.520;11.228;2023-05-07T10:02:59;2.43;;;2.00;;
12719;SDS011;6424;48.520;11.228;2023-05-07T10:05:43;2.37;;;1.90;;
12719;SDS011;6424;48.520;11.228;2023-05-07T10:08:25;2.07;;;1.70;;
12719;SDS011;6424;48.520;11.228;2023-05-07T10:11:05;2.33;;;2.00;;
12719;SDS011;6424;48.520;11.228;2023-05-07T10:13:46;2.20;;;2.00;;
12719;SDS011;6424;48.520;11.228;2023-05-07T10:16:32;2.53;;;1.30;;
12719;SDS011;6424;48.520;11.228;2023-05-07T10:19:16;2.00;;;1.30;;
12719;SDS011;6424;48.520;11.228;2023-05-07T10:22:01;2.13;;;1.57;;
12719;SDS011;6424;48.520;11.228;2023-05-07T10:24:45;1.60;;;1.50;;
12719;SDS011;6424;48.520;11.228;2023-05-07T10:27:29;2.27;;;1.60;;
12719;SDS011;6424;48.520;11.228;2023-05-07T10:33:07;2.30;;;1.50;;
12719;SDS011;6424;48.520;11.228;2023-05-07T10:35:50;2.23;;;2.00;;
12719;SDS011;6424;48.520;11.228;2023-05-07T10:38:31;2.07;;;1.60;;
12719;SDS011;6424;48.520;11.228;2023-05-07T10:41:12;1.87;;;1.77;;
12719;SDS011;6424;48.520;11.228;2023-05-07T10:43:53;3.10;;;1.80;;
12719;SDS011;6424;48.520;11.228;2023-05-07T10:46:34;2.70;;;1.60;;
12719;SDS011;6424;48.520;11.228;2023-05-07T10:49:15;1.70;;;1.60;;
12719;SDS011;6424;48.520;11.228;2023-05-07T10:52:15;2.10;;;1.60;;
12719;SDS011;6424;48.520;11.228;2023-05-07T10:58:22;2.53;;;1.57;;
12719;SDS011;6424;48.520;11.228;2023-05-07T11:01:07;2.30;;;2.00;;
12719;SDS011;6424;48.520;11.228;2023-05-07T11:15:35;1.63;;;1.50;;
12719;SDS011;6424;48.520;11.228;2023-05-07T11:18:02;1.97;;;1.40;;
12719;SDS011;6424;48.520;11.228;2023-05-07T11:20:44;2.50;;;1.50;;
12719;SDS011;6424;48.520;11.228;2023-05-07T11:26:03;2.50;;;1.70;;
12719;SDS011;6424;48.520;11.228;2023-05-07T11:28:45;2.00;;;1.67;;
12719;SDS011;6424;48.520;11.228;2023-05-07T11:31:26;1.33;;;1.23;;
12719;SDS011;6424;48.520;11.228;2023-05-07T11:34:09;1.40;;;1.30;;
12719;SDS011;6424;48.520;11.228;2023-05-07T11:36:51;2.40;;;1.60;;
12719;SDS011;6424;48.520;11.228;2023-05-07T11:39:33;1.40;;;1.10;;
12719;SDS011;6424;48.520;11.228;2023-05-07T11:42:36;2.30;;;1.50;;
12719;SDS011;6424;48.520;11.228;2023-05-07T11:45:02;2.40;;;1.40;;
12719;SDS011;6424;48.520;11.228;2023-05-07T11:47:44;1.87;;;1.73;;
12719;SDS011;6424;48.520;11.228;2023-05-07T11:50:25;1.60;;;1.50;;
12719;SDS011;6424;48.520;11.228;2023-05-07T11:53:08;2.23;;;1.33;;
12719;SDS011;6424;48.520;11.228;2023-05-07T11:55:51;1.67;;;1.40;;
12719;SDS011;6424;48.520;11.228;2023-05-07T11:58:36;1.40;;;1.30;;
12719;SDS011;6424;48.520;11.228;2023-05-07T12:01:17;2.93;;;1.23;;
12719;SDS011;6424;48.520;11.228;2023-05-07T12:03:58;1.90;;;1.33;;
12719;SDS011;6424;48.520;11.228;2023-05-07T12:06:43;2.60;;;1.40;;
12719;SDS011;6424;48.520;11.228;2023-05-07T12:09:24;3.07;;;1.40;;
12719;SDS011;6424;48.520;11.228;2023-05-07T12:12:05;1.60;;;1.20;;
12719;SDS011;6424;48.520;11.228;2023-05-07T12:14:46;1.60;;;1.50;;
12719;SDS011;6424;48.520;11.228;2023-05-07T12:17:28;1.73;;;1.10;;
12719;SDS011;6424;48.520;11.228;2023-05-07T12:19:54;1.87;;;1.30;;
12719;SDS011;6424;48.520;11.228;2023-05-07T12:22:35;1.50;;;1.40;;
12719;SDS011;6424;48.520;11.228;2023-05-07T12:25:18;1.50;;;1.20;;
12719;SDS011;6424;48.520;11.228;2023-05-07T12:28:00;1.77;;;1.30;;
12719;SDS011;6424;48.520;11.228;2023-05-07T12:30:46;1.97;;;1.50;;
12719;SDS011;6424;48.520;11.228;2023-05-07T12:33:28;2.40;;;1.30;;
12719;SDS011;6424;48.520;11.228;2023-05-07T12:36:12;1.93;;;1.50;;
12719;SDS011;6424;48.520;11.228;2023-05-07T12:38:53;1.37;;;1.27;;
12719;SDS011;6424;48.520;11.228;2023-05-07T12:44:23;1.53;;;1.40;;
12719;SDS011;6424;48.520;11.228;2023-05-07T12:47:05;2.97;;;1.27;;
12719;SDS011;6424;48.520;11.228;2023-05-07T12:49:46;2.37;;;1.50;;
12719;SDS011;6424;48.520;11.228;2023-05-07T12:52:27;2.53;;;1.60;;
12719;SDS011;6424;48.520;11.228;2023-05-07T12:55:08;2.10;;;1.50;;
12719;SDS011;6424;48.520;11.228;2023-05-07T12:57:52;2.67;;;1.50;;
12719;SDS011;6424;48.520;11.228;2023-05-07T13:00:37;1.57;;;1.40;;
12719;SDS011;6424;48.520;11.228;2023-05-07T13:03:26;2.93;;;1.30;;
12719;SDS011;6424;48.520;11.228;2023-05-07T13:06:09;1.53;;;1.43;;
12719;SDS011;6424;48.520;11.228;2023-05-07T13:08:52;1.57;;;1.47;;
12719;SDS011;6424;48.520;11.228;2023-05-07T13:11:33;1.60;;;1.50;;
12719;SDS011;6424;48.520;11.228;2023-05-07T13:14:14;1.50;;;1.40;;
12719;SDS011;6424;48.520;11.228;2023-05-07T13:16:55;1.60;;;1.20;;
12719;SDS011;6424;48.520;11.228;2023-05-07T13:19:36;2.97;;;1.57;;
12719;SDS011;6424;48.520;11.228;2023-05-07T13:22:17;1.97;;;1.40;;
12719;SDS011;6424;48.520;11.228;2023-05-07T13:24:58;2.87;;;1.50;;
12719;SDS011;6424;48.520;11.228;2023-05-07T13:27:39;2.37;;;1.30;;
12719;SDS011;6424;48.520;11.228;2023-05-07T13:30:19;1.53;;;1.43;;
12719;SDS011;6424;48.520;11.228;2023-05-07T13:33:00;3.20;;;1.60;;
12719;SDS011;6424;48.520;11.228;2023-05-07T13:35:41;1.50;;;1.40;;
12719;SDS011;6424;48.520;11.228;2023-05-07T13:38:22;2.23;;;1.60;;
12719;SDS011;6424;48.520;11.228;2023-05-07T13:41:03;2.23;;;1.60;;
12719;SDS011;6424;48.520;11.228;2023-05-07T13:43:29;1.97;;;1.53;;
12719;SDS011;6424;48.520;11.228;2023-05-07T13:46:09;2.60;;;1.77;;
12719;SDS011;6424;48.520;11.228;2023-05-07T13:48:50;2.77;;;1.50;;
12719;SDS011;6424;48.520;11.228;2023-05-07T13:51:31;1.80;;;1.50;;
12719;SDS011;6424;48.520;11.228;2023-05-07T13:54:12;2.10;;;1.70;;
12719;SDS011;6424;48.520;11.228;2023-05-07T13:56:52;1.67;;;1.53;;
12719;SDS011;6424;48.520;11.228;2023-05-07T13:59:33;1.70;;;1.47;;
12719;SDS011;6424;48.520;11.228;2023-05-07T14:02:14;2.77;;;1.60;;
12719;SDS011;6424;48.520;11.228;2023-05-07T14:04:55;2.70;;;1.77;;
12719;SDS011;6424;48.520;11.228;2023-05-07T14:07:37;1.80;;;1.40;;
12719;SDS011;6424;48.520;11.228;2023-05-07T14:10:18;1.90;;;1.73;;
12719;SDS011;6424;48.520;11.228;2023-05-07T14:12:59;1.63;;;1.53;;
12719;SDS011;6424;48.520;11.228;2023-05-07T14:15:40;3.53;;;1.57;;
12719;SDS011;6424;48.520;11.228;2023-05-07T14:18:22;4.10;;;1.70;;
12719;SDS011;6424;48.520;11.228;2023-05-07T14:21:04;1.93;;;1.60;;
12719;SDS011;6424;48.520;11.228;2023-05-07T14:23:46;2.43;;;1.60;;
12719;SDS011;6424;48.520;11.228;2023-05-07T14:26:27;2.60;;;1.40;;
12719;SDS011;6424;48.520;11.228;2023-05-07T14:29:08;2.13;;;1.47;;
12719;SDS011;6424;48.520;11.228;2023-05-07T14:31:34;1.80;;;1.50;;
12719;SDS011;6424;48.520;11.228;2023-05-07T14:34:14;1.67;;;1.47;;
12719;SDS011;6424;48.520;11.228;2023-05-07T14:36:55;2.80;;;1.70;;
12719;SDS011;6424;48.520;11.228;2023-05-07T14:39:36;2.40;;;1.67;;
12719;SDS011;6424;48.520;11.228;2023-05-07T14:42:17;2.00;;;1.80;;
12719;SDS011;6424;48.520;11.228;2023-05-07T14:44:58;4.00;;;2.37;;
12719;SDS011;6424;48.520;11.228;2023-05-07T14:47:39;2.07;;;1.87;;
12719;SDS011;6424;48.520;11.228;2023-05-07T14:50:19;1.77;;;1.67;;
12719;SDS011;6424;48.520;11.228;2023-05-07T14:53:00;2.43;;;1.50;;
12719;SDS011;6424;48.520;11.228;2023-05-07T14:55:41;2.27;;;1.80;;
12719;SDS011;6424;48.520;11.228;2023-05-07T14:58:22;3.17;;;1.87;;
12719;SDS011;6424;48.520;11.228;2023-05-07T15:01:03;3.03;;;2.00;;
12719;SDS011;6424;48.520;11.228;2023-05-07T15:03:43;2.83;;;1.77;;
12719;SDS011;6424;48.520;11.228;2023-05-07T15:06:24;3.00;;;1.83;;
12719;SDS011;6424;48.520;11.228;2023-05-07T15:09:06;4.03;;;1.90;;
12719;SDS011;6424;48.520;11.228;2023-05-07T15:11:33;3.40;;;1.80;;
12719;SDS011;6424;48.520;11.228;2023-05-07T15:14:13;2.03;;;1.80;;
12719;SDS011;6424;48.520;11.228;2023-05-07T15:16:55;1.80;;;1.70;;
12719;SDS011;6424;48.520;11.228;2023-05-07T15:19:35;1.70;;;1.57;;
12719;SDS011;6424;48.520;11.228;2023-05-07T15:22:16;2.13;;;1.83;;
12719;SDS011;6424;48.520;11.228;2023-05-07T15:24:57;1.70;;;1.33;;
12719;SDS011;6424;48.520;11.228;2023-05-07T15:27:38;2.57;;;1.93;;
12719;SDS011;6424;48.520;11.228;2023-05-07T15:30:19;4.13;;;2.17;;
12719;SDS011;6424;48.520;11.228;2023-05-07T15:33:01;2.10;;;1.70;;
12719;SDS011;6424;48.520;11.228;2023-05-07T15:35:42;2.57;;;2.00;;
12719;SDS011;6424;48.520;11.228;2023-05-07T15:38:24;2.63;;;1.80;;
12719;SDS011;6424;48.520;11.228;2023-05-07T15:41:07;2.57;;;1.90;;
12719;SDS011;6424;48.520;11.228;2023-05-07T15:43:50;3.97;;;1.97;;
12719;SDS011;6424;48.520;11.228;2023-05-07T15:46:32;2.63;;;1.97;;
12719;SDS011;6424;48.520;11.228;2023-05-07T15:49:12;2.03;;;1.60;;
12719;SDS011;6424;48.520;11.228;2023-05-07T15:51:53;2.67;;;2.00;;
12719;SDS011;6424;48.520;11.228;2023-05-07T15:54:34;2.03;;;1.90;;
12719;SDS011;6424;48.520;11.228;2023-05-07T15:57:15;2.00;;;1.77;;
12719;SDS011;6424;48.520;11.228;2023-05-07T15:59:56;4.27;;;1.77;;
12719;SDS011;6424;48.520;11.228;2023-05-07T16:02:37;1.97;;;1.77;;
12719;SDS011;6424;48.520;11.228;2023-05-07T16:05:17;2.77;;;1.67;;
12719;SDS011;6424;48.520;11.228;2023-05-07T16:07:58;3.17;;;2.83;;
12719;SDS011;6424;48.520;11.228;2023-05-07T16:10:39;2.67;;;2.37;;
12719;SDS011;6424;48.520;11.228;2023-05-07T16:13:20;2.60;;;2.30;;
12719;SDS011;6424;48.520;11.228;2023-05-07T16:16:03;2.40;;;2.20;;
12719;SDS011;6424;48.520;11.228;2023-05-07T16:18:45;3.53;;;2.93;;
12719;SDS011;6424;48.520;11.228;2023-05-07T16:21:26;2.47;;;2.10;;
12719;SDS011;6424;48.520;11.228;2023-05-07T16:23:52;3.20;;;2.90;;
12719;SDS011;6424;48.520;11.228;2023-05-07T16:26:33;5.63;;;4.17;;
12719;SDS011;6424;48.520;11.228;2023-05-07T16:29:14;2.50;;;2.30;;